Time;durP1;ratioP1;P1;durP2;ratioP2;P2;SDS_P1;SDS_P2;PMS_P1;PMS_P2;Temp;Humidity;BMP_temperature;BMP_pressure;BME280_temperature;BME280_humidity;BME280_pressure;Samples;Min_cycle;Max_cycle;Signal;HPM_P1;HPM_P2
2021/05/06 00:33:25;;;;;;;2.40;1.60;;;5.90;99.90;;;;;;5075478;28;20039;-58
2021/05/06 00:35:51;;;;;;;3.92;1.67;;;5.90;99.90;;;;;;5074745;28;20020;-57
2021/05/06 00:38:23;;;;;;;2.08;1.52;;;5.80;99.90;;;;;;5074336;28;20021;-58
2021/05/06 00:54:23;;;;;;;4.97;1.98;;;5.70;99.90;;;;;;5073838;28;20087;-59
2021/05/06 01:04:43;;;;;;;4.47;1.90;;;5.60;99.90;;;;;;5074178;28;20021;-59
2021/05/06 01:12:41;;;;;;;3.17;1.70;;;5.40;99.90;;;;;;5074023;28;20408;-59
2021/05/06 01:15:07;;;;;;;4.32;2.10;;;5.50;99.90;;;;;;5072573;28;20063;-60
2021/05/06 01:17:33;;;;;;;2.95;2.03;;;5.40;99.90;;;;;;5073744;28;20397;-59
2021/05/06 01:19:58;;;;;;;4.60;2.28;;;5.40;99.90;;;;;;5073469;28;20034;-59
2021/05/06 01:22:24;;;;;;;3.92;2.10;;;5.30;99.90;;;;;;5073581;28;20078;-59
2021/05/06 01:24:55;;;;;;;4.30;2.03;;;5.40;99.90;;;;;;5073551;28;20050;-59
2021/05/06 01:27:36;;;;;;;3.35;1.92;;;5.40;99.90;;;;;;5073631;28;20146;-60
2021/05/06 01:30:17;;;;;;;4.82;2.22;;;5.30;99.90;;;;;;5071929;28;20515;-61
2021/05/06 01:32:53;;;;;;;4.25;1.75;;;5.30;99.90;;;;;;5073422;28;20474;-60
2021/05/06 01:35:26;;;;;;;2.92;2.10;;;5.40;99.90;;;;;;5073095;28;20020;-60
2021/05/06 01:40:55;;;;;;;5.15;2.33;;;5.50;99.90;;;;;;5073215;28;20583;-60
2021/05/06 01:59:45;;;;;;;5.30;2.47;;;5.70;99.90;;;;;;5082231;28;20037;-60
2021/05/06 02:02:11;;;;;;;4.03;2.20;;;5.70;99.90;;;;;;5072525;28;20033;-60
2021/05/06 02:04:37;;;;;;;4.07;2.22;;;5.80;99.90;;;;;;5071249;28;20025;-60
2021/05/06 02:07:02;;;;;;;2.88;2.03;;;5.70;99.90;;;;;;5072731;28;20084;-60
2021/05/06 02:09:28;;;;;;;4.30;2.08;;;5.70;99.90;;;;;;5072512;28;20537;-60
2021/05/06 02:11:54;;;;;;;6.03;2.47;;;5.70;99.90;;;;;;5072418;28;20027;-61
2021/05/06 02:14:20;;;;;;;6.93;2.67;;;5.80;99.90;;;;;;5072416;28;20039;-60
2021/05/06 02:16:46;;;;;;;3.53;2.08;;;5.80;99.90;;;;;;5072544;28;20024;-59
2021/05/06 02:19:13;;;;;;;6.78;2.55;;;5.80;99.90;;;;;;5072349;28;20067;-60
2021/05/06 02:21:39;;;;;;;6.50;2.92;;;5.80;99.90;;;;;;5072435;28;20486;-61
2021/05/06 02:24:05;;;;;;;4.68;2.45;;;5.80;99.90;;;;;;5070836;28;20108;-60
2021/05/06 02:26:30;;;;;;;6.68;2.33;;;5.80;99.90;;;;;;5071082;28;20409;-60
2021/05/06 02:28:56;;;;;;;4.43;2.60;;;5.80;99.90;;;;;;5072352;28;20036;-60
2021/05/06 02:31:22;;;;;;;6.10;2.88;;;5.80;99.90;;;;;;5071777;28;20486;-60
2021/05/06 02:33:47;;;;;;;6.45;2.80;;;5.80;99.90;;;;;;5072034;28;20025;-59
2021/05/06 02:36:13;;;;;;;8.25;2.85;;;5.80;99.90;;;;;;5072252;28;20020;-60
2021/05/06 02:38:39;;;;;;;8.68;2.78;;;5.80;99.90;;;;;;5071960;28;20064;-60
2021/05/06 02:41:05;;;;;;;5.00;3.05;;;5.70;99.90;;;;;;5072090;28;20077;-60
2021/05/06 02:43:31;;;;;;;5.57;2.60;;;5.70;99.90;;;;;;5071723;28;20033;-60
2021/05/06 02:45:56;;;;;;;6.80;2.80;;;5.70;99.90;;;;;;5072095;28;20451;-60
2021/05/06 02:48:22;;;;;;;5.90;2.85;;;5.70;99.90;;;;;;5071842;28;20388;-60
2021/05/06 02:50:55;;;;;;;9.73;2.80;;;5.70;99.90;;;;;;5070480;28;20028;-60
2021/05/06 02:53:25;;;;;;;7.68;2.60;;;5.60;99.90;;;;;;5071553;28;20032;-61
2021/05/06 03:03:36;;;;;;;4.35;2.90;;;5.60;99.90;;;;;;5071859;28;20119;-60
2021/05/06 03:06:02;;;;;;;4.85;2.80;;;5.50;99.90;;;;;;5071717;28;20086;-61
2021/05/06 03:08:33;;;;;;;6.05;3.13;;;5.50;99.90;;;;;;5071311;28;20028;-60
2021/05/06 03:11:44;;;;;;;5.70;2.97;;;5.40;99.90;;;;;;5070073;28;20032;-60
2021/05/06 03:24:30;;;;;;;8.35;3.35;;;5.30;99.90;;;;;;5071536;28;20016;-60
2021/05/06 03:26:56;;;;;;;6.30;3.20;;;5.30;99.90;;;;;;5069918;28;20057;-60
2021/05/06 03:29:36;;;;;;;7.70;3.85;;;5.30;99.90;;;;;;5071128;28;20120;-60
2021/05/06 03:34:42;;;;;;;8.43;3.72;;;5.40;99.90;;;;;;5071462;28;20024;-60
2021/05/06 03:42:45;;;;;;;9.82;4.47;;;5.30;99.90;;;;;;5071201;28;20546;-61
2021/05/06 04:15:32;;;;;;;14.20;7.75;;;5.30;99.90;;;;;;5070780;28;20020;-60
2021/05/06 04:18:24;;;;;;;15.85;8.15;;;5.10;99.90;;;;;;5069602;28;20024;-61
2021/05/06 04:26:47;;;;;;;14.73;6.90;;;5.10;99.90;;;;;;5070942;28;20094;-60
2021/05/06 04:37:16;;;;;;;14.50;7.32;;;5.10;99.90;;;;;;5070678;28;20503;-61
2021/05/06 04:39:49;;;;;;;16.05;7.18;;;5.20;99.90;;;;;;5069253;28;20024;-60
2021/05/06 04:55:57;;;;;;;13.15;6.22;;;5.30;99.90;;;;;;5070181;28;20119;-61
2021/05/06 05:07:06;;;;;;;10.82;5.90;;;5.40;99.90;;;;;;5074332;28;20063;-61
2021/05/06 05:09:56;;;;;;;10.00;5.60;;;5.40;99.90;;;;;;5073618;28;20052;-61
2021/05/06 05:20:18;;;;;;;15.52;6.65;;;5.60;99.90;;;;;;5073430;28;20028;-61
2021/05/06 05:23:32;;;;;;;14.43;6.20;;;5.70;99.90;;;;;;5073371;28;20221;-61
2021/05/06 05:25:45;;;;;;;15.05;7.07;;;5.70;99.90;;;;;;5075225;28;20123;-61
2021/05/06 05:28:11;;;;;;;12.95;6.80;;;5.60;99.90;;;;;;5073328;28;20024;-61
2021/05/06 05:30:39;;;;;;;12.68;7.00;;;5.60;99.90;;;;;;5073696;28;20025;-60
2021/05/06 05:33:13;;;;;;;13.90;7.28;;;5.70;99.90;;;;;;5073354;28;20070;-60
2021/05/06 05:36:16;;;;;;;17.42;7.03;;;5.70;99.90;;;;;;5073786;28;20044;-60
2021/05/06 05:54:37;;;;;;;13.85;6.47;;;6.10;99.90;;;;;;5058602;28;20036;-61
2021/05/06 05:57:08;;;;;;;14.57;7.28;;;6.20;99.90;;;;;;5060248;28;20075;-61
2021/05/06 05:59:37;;;;;;;13.88;6.88;;;6.30;99.90;;;;;;5067004;28;20036;-61
2021/05/06 06:02:03;;;;;;;12.23;5.95;;;6.40;99.90;;;;;;5067216;28;20047;-61
2021/05/06 06:04:29;;;;;;;9.80;6.30;;;6.60;99.90;;;;;;5066923;28;20087;-61
2021/05/06 06:06:55;;;;;;;11.90;6.05;;;6.60;99.90;;;;;;5066191;28;20040;-60
2021/05/06 06:09:20;;;;;;;12.85;6.57;;;6.80;99.90;;;;;;5060711;28;20074;-61
2021/05/06 06:11:46;;;;;;;16.27;6.25;;;6.90;99.90;;;;;;5054241;28;20508;-61
2021/05/06 06:14:12;;;;;;;12.60;6.63;;;7.00;99.90;;;;;;5053599;28;20715;-61
2021/05/06 06:16:40;;;;;;;14.13;7.55;;;6.90;99.90;;;;;;5050008;28;20020;-61
2021/05/06 06:19:06;;;;;;;10.80;6.40;;;7.00;99.90;;;;;;5049604;28;20520;-60
2021/05/06 06:24:07;;;;;;;13.27;6.85;;;7.00;99.90;;;;;;5059710;28;20590;-61
2021/05/06 06:26:33;;;;;;;11.52;5.55;;;7.30;99.90;;;;;;5063447;28;20524;-60
2021/05/06 06:29:06;;;;;;;12.35;5.85;;;7.40;99.90;;;;;;5058425;28;20032;-61
2021/05/06 06:31:41;;;;;;;11.75;5.82;;;7.40;99.90;;;;;;5060543;28;20021;-60
2021/05/06 06:34:07;;;;;;;9.93;4.82;;;7.50;99.90;;;;;;5058267;28;20024;-61
2021/05/06 06:36:35;;;;;;;10.30;5.50;;;7.60;99.90;;;;;;5059202;28;20058;-61
2021/05/06 06:39:02;;;;;;;11.65;5.72;;;7.50;99.90;;;;;;5052375;28;20108;-61
2021/05/06 06:41:28;;;;;;;10.95;5.15;;;7.40;99.90;;;;;;5048756;28;20032;-61
2021/05/06 06:43:56;;;;;;;11.52;5.35;;;7.40;99.90;;;;;;5051223;28;20438;-61
2021/05/06 06:46:21;;;;;;;13.43;5.40;;;7.60;99.90;;;;;;5053743;28;20461;-61
2021/05/06 06:48:47;;;;;;;8.30;4.03;;;7.80;99.90;;;;;;5048889;28;20228;-60
2021/05/06 06:51:14;;;;;;;5.40;4.00;;;7.90;99.90;;;;;;5042729;28;20052;-60
2021/05/06 06:53:39;;;;;;;9.48;4.85;;;7.90;99.90;;;;;;5045604;28;20029;-60
2021/05/06 06:56:06;;;;;;;8.45;4.05;;;8.10;99.90;;;;;;5039159;28;20386;-59
2021/05/06 06:58:31;;;;;;;8.48;3.55;;;8.20;99.90;;;;;;5047917;28;20017;-60
2021/05/06 07:00:57;;;;;;;10.45;3.88;;;8.40;99.90;;;;;;5043770;28;20035;-60
2021/05/06 07:03:24;;;;;;;7.07;3.72;;;9.00;99.90;;;;;;5053848;28;20085;-60
2021/05/06 07:05:49;;;;;;;10.05;4.40;;;9.10;99.90;;;;;;5050872;28;20243;-60
2021/05/06 07:08:21;;;;;;;7.47;3.95;;;9.10;99.90;;;;;;5048888;28;20075;-61
2021/05/06 07:10:49;;;;;;;9.50;3.90;;;9.40;99.90;;;;;;5047062;28;20048;-60
2021/05/06 07:13:18;;;;;;;9.80;4.05;;;10.00;99.90;;;;;;5052021;28;20107;-60
2021/05/06 07:15:51;;;;;;;7.90;3.42;;;10.30;99.90;;;;;;5049829;28;20420;-61
2021/05/06 07:18:17;;;;;;;5.78;2.95;;;10.10;99.90;;;;;;5063547;28;20036;-61
2021/05/06 07:20:45;;;;;;;6.38;2.88;;;10.50;99.90;;;;;;5051423;28;20040;-61
2021/05/06 07:23:12;;;;;;;6.30;2.90;;;11.20;99.90;;;;;;5052513;28;20047;-61
2021/05/06 07:25:38;;;;;;;5.47;3.00;;;11.90;99.90;;;;;;5050557;28;20083;-62
2021/05/06 07:28:19;;;;;;;3.70;2.38;;;12.50;99.90;;;;;;5049357;28;20120;-62
2021/05/06 07:30:46;;;;;;;5.00;2.60;;;12.40;99.90;;;;;;5049647;28;20022;-62
2021/05/06 07:33:13;;;;;;;7.00;2.90;;;11.80;99.90;;;;;;5052691;28;20389;-62
2021/05/06 07:35:39;;;;;;;3.05;2.47;;;11.50;99.90;;;;;;5054097;28;20547;-61
2021/05/06 07:38:05;;;;;;;4.30;2.53;;;11.10;99.90;;;;;;5049794;28;20039;-61
2021/05/06 07:40:32;;;;;;;5.97;3.10;;;10.90;99.90;;;;;;5059549;28;20057;-62
2021/05/06 07:42:58;;;;;;;6.63;2.90;;;11.20;99.90;;;;;;5055930;28;20032;-61
2021/05/06 07:45:23;;;;;;;5.97;2.88;;;11.20;99.90;;;;;;5052331;28;20033;-61
2021/05/06 07:47:49;;;;;;;6.55;3.00;;;11.00;99.90;;;;;;5055853;28;20506;-62
2021/05/06 07:50:17;;;;;;;4.75;2.70;;;10.90;99.90;;;;;;5051425;28;20036;-61
2021/05/06 07:52:44;;;;;;;5.40;3.30;;;11.30;99.90;;;;;;5061772;28;20131;-60
2021/05/06 07:55:13;;;;;;;5.15;2.75;;;11.30;99.90;;;;;;5055595;28;20067;-62
2021/05/06 07:57:39;;;;;;;4.97;2.60;;;11.50;99.90;;;;;;5058706;28;20113;-62
2021/05/06 08:00:07;;;;;;;5.10;2.60;;;12.00;99.90;;;;;;5053725;28;20785;-62
2021/05/06 08:02:33;;;;;;;4.10;2.25;;;12.70;99.90;;;;;;5059600;28;20215;-61
2021/05/06 08:04:59;;;;;;;6.22;2.10;;;13.40;99.90;;;;;;5057495;28;20138;-62
2021/05/06 08:07:24;;;;;;;3.10;2.40;;;14.00;99.30;;;;;;5058066;28;20032;-61
2021/05/06 08:09:50;;;;;;;7.57;2.42;;;14.40;99.90;;;;;;5046934;28;20489;-61
2021/05/06 08:12:16;;;;;;;4.60;2.08;;;15.20;95.60;;;;;;5050387;28;20024;-62
2021/05/06 08:14:42;;;;;;;4.38;2.38;;;14.50;96.60;;;;;;5052961;28;20029;-62
2021/05/06 08:17:07;;;;;;;4.13;2.35;;;14.10;97.40;;;;;;5053723;28;20029;-61
2021/05/06 08:19:33;;;;;;;6.95;2.45;;;13.80;97.40;;;;;;5039635;28;20098;-62
2021/05/06 08:22:00;;;;;;;6.45;2.30;;;15.00;97.60;;;;;;5052929;28;20032;-62
2021/05/06 08:24:26;;;;;;;6.47;2.70;;;15.30;94.00;;;;;;5050056;28;20047;-62
2021/05/06 08:26:52;;;;;;;7.32;2.97;;;14.40;96.00;;;;;;5049872;28;20692;-61
2021/05/06 08:29:17;;;;;;;4.15;2.08;;;13.90;95.60;;;;;;5038698;28;20033;-62
2021/05/06 08:31:43;;;;;;;3.58;2.25;;;13.50;97.70;;;;;;5056246;28;20028;-62
2021/05/06 08:34:09;;;;;;;3.72;2.05;;;13.70;95.80;;;;;;5057606;28;20025;-62
2021/05/06 08:36:34;;;;;;;3.25;2.20;;;14.10;94.30;;;;;;5052058;28;20383;-62
2021/05/06 08:39:00;;;;;;;2.83;2.33;;;14.90;93.30;;;;;;5051261;28;20068;-62
2021/05/06 08:41:26;;;;;;;5.10;2.17;;;15.70;91.40;;;;;;5066079;28;20029;-68
2021/05/06 08:43:58;;;;;;;5.70;2.13;;;15.60;85.00;;;;;;5061195;28;20031;-62
2021/05/06 08:46:31;;;;;;;3.05;1.83;;;15.10;85.80;;;;;;5062365;28;20024;-62
2021/05/06 08:48:57;;;;;;;4.40;2.30;;;15.60;80.70;;;;;;5048938;28;20032;-61
2021/05/06 08:51:23;;;;;;;3.38;1.95;;;15.10;85.30;;;;;;5056723;28;20039;-61
2021/05/06 08:53:49;;;;;;;3.80;1.85;;;15.10;88.80;;;;;;5061152;28;20021;-61
2021/05/06 08:56:15;;;;;;;3.72;2.03;;;15.90;75.50;;;;;;5056695;28;20044;-62
2021/05/06 08:58:40;;;;;;;3.17;1.92;;;15.40;78.20;;;;;;5053245;28;20016;-62
2021/05/06 09:01:06;;;;;;;4.40;2.00;;;15.30;81.60;;;;;;5052533;28;20438;-61
2021/05/06 09:03:32;;;;;;;6.63;1.90;;;15.20;77.60;;;;;;5055231;28;20032;-61
2021/05/06 09:06:12;;;;;;;4.28;1.77;;;15.40;73.80;;;;;;5059770;28;20021;-61
2021/05/06 09:08:42;;;;;;;4.55;1.98;;;15.60;71.10;;;;;;5059870;28;20494;-61
2021/05/06 09:11:08;;;;;;;4.63;2.20;;;15.10;71.90;;;;;;5055171;28;20025;-61
2021/05/06 09:13:34;;;;;;;3.70;1.92;;;14.60;74.20;;;;;;5062182;28;20027;-61
2021/05/06 09:16:00;;;;;;;6.10;2.00;;;14.50;79.60;;;;;;5074655;28;20409;-61
2021/05/06 09:18:39;;;;;;;5.22;2.35;;;14.60;80.20;;;;;;5058843;28;20032;-61
2021/05/06 09:21:09;;;;;;;5.95;2.10;;;14.30;81.30;;;;;;5054862;28;20358;-61
2021/05/06 09:23:35;;;;;;;5.20;1.83;;;14.10;82.40;;;;;;5062243;28;20043;-61
2021/05/06 09:26:02;;;;;;;3.10;1.80;;;13.60;80.10;;;;;;5067041;28;20041;-61
2021/05/06 09:28:29;;;;;;;3.47;2.10;;;13.30;88.40;;;;;;5058874;28;20040;-62
2021/05/06 09:31:06;;;;;;;4.90;2.10;;;14.00;88.00;;;;;;5056776;28;20021;-61
2021/05/06 09:33:38;;;;;;;6.90;2.28;;;13.90;89.90;;;;;;5065947;28;20043;-61
2021/05/06 09:36:15;;;;;;;5.22;2.28;;;13.50;90.70;;;;;;5063405;28;20044;-62
2021/05/06 09:38:43;;;;;;;7.18;2.35;;;13.20;91.20;;;;;;5056265;28;20066;-62
2021/05/06 09:41:10;;;;;;;6.40;2.30;;;13.10;90.60;;;;;;5050103;28;20421;-61
2021/05/06 09:43:43;;;;;;;5.10;1.75;;;13.30;90.20;;;;;;5063223;28;20032;-61
2021/05/06 09:46:38;;;;;;;5.18;2.10;;;12.80;91.80;;;;;;5056983;28;20066;-61
2021/05/06 09:49:12;;;;;;;2.80;2.10;;;12.80;91.90;;;;;;5047696;28;20029;-61
2021/05/06 09:51:42;;;;;;;3.78;1.67;;;12.80;92.90;;;;;;5061548;28;20043;-61
2021/05/06 09:54:13;;;;;;;2.38;1.25;;;12.60;84.30;;;;;;5055428;28;20048;-61
2021/05/06 09:56:40;;;;;;;4.90;1.40;;;12.80;83.30;;;;;;5057222;28;20055;-61
2021/05/06 09:59:09;;;;;;;5.43;1.67;;;12.90;86.50;;;;;;5048425;28;20037;-62
2021/05/06 10:01:41;;;;;;;4.63;1.58;;;12.70;86.90;;;;;;5059546;28;20024;-61
2021/05/06 10:04:19;;;;;;;5.05;1.70;;;12.80;86.30;;;;;;5065657;28;20545;-61
2021/05/06 10:07:11;;;;;;;4.95;1.58;;;12.60;89.50;;;;;;5058659;28;20060;-61
2021/05/06 10:09:59;;;;;;;2.25;1.83;;;12.80;91.40;;;;;;5060802;28;20025;-62
2021/05/06 10:12:28;;;;;;;7.68;2.10;;;12.80;90.60;;;;;;5057288;28;20028;-61
2021/05/06 10:14:54;;;;;;;4.68;1.65;;;12.50;90.90;;;;;;5062351;28;20125;-65
2021/05/06 10:17:21;;;;;;;3.15;1.70;;;12.60;91.60;;;;;;5060588;28;20040;-64
2021/05/06 10:19:46;;;;;;;4.13;1.65;;;12.90;91.90;;;;;;5054404;28;20390;-63
2021/05/06 10:22:15;;;;;;;3.38;2.20;;;12.70;91.50;;;;;;5059371;28;20047;-63
2021/05/06 10:24:42;;;;;;;4.35;1.70;;;12.70;90.70;;;;;;5064895;28;20073;-63
2021/05/06 10:27:16;;;;;;;3.55;1.80;;;12.70;91.30;;;;;;5056880;28;20044;-64
2021/05/06 10:29:42;;;;;;;4.88;1.88;;;12.80;88.60;;;;;;5049337;28;20373;-64
2021/05/06 10:32:10;;;;;;;5.80;2.10;;;12.80;91.00;;;;;;5053615;28;20024;-63
2021/05/06 10:34:36;;;;;;;7.30;2.20;;;12.80;89.80;;;;;;5059518;28;20020;-64
2021/05/06 10:37:03;;;;;;;4.38;1.90;;;12.70;91.30;;;;;;5064756;28;20016;-64
2021/05/06 10:39:43;;;;;;;7.53;2.00;;;13.40;92.00;;;;;;5047090;28;20530;-64
2021/05/06 10:42:27;;;;;;;4.78;1.90;;;13.90;85.80;;;;;;5057373;28;20073;-64
2021/05/06 10:45:12;;;;;;;6.88;2.17;;;13.50;88.00;;;;;;5062496;28;20027;-64
2021/05/06 10:47:47;;;;;;;4.28;2.25;;;13.40;89.10;;;;;;5058158;28;20032;-63
2021/05/06 10:50:15;;;;;;;7.20;2.20;;;13.30;90.10;;;;;;5045247;28;20030;-64
2021/05/06 10:52:47;;;;;;;4.13;2.00;;;13.50;88.90;;;;;;5058143;28;20100;-64
2021/05/06 10:55:14;;;;;;;4.95;2.00;;;13.10;87.50;;;;;;5054806;28;20048;-64
2021/05/06 10:57:41;;;;;;;6.75;2.00;;;12.90;91.50;;;;;;5049599;28;20017;-64
2021/05/06 11:00:15;;;;;;;3.70;2.17;;;12.70;91.80;;;;;;5042580;28;20047;-64
2021/05/06 11:02:42;;;;;;;3.22;2.00;;;12.30;94.60;;;;;;5054987;28;20017;-64
2021/05/06 11:05:20;;;;;;;3.42;1.70;;;12.40;94.40;;;;;;5049499;28;20017;-63
2021/05/06 11:08:04;;;;;;;3.88;2.00;;;11.70;97.70;;;;;;5051839;28;20029;-63
2021/05/06 11:10:50;;;;;;;4.80;2.20;;;11.10;99.90;;;;;;5057490;28;20034;-63
2021/05/06 11:13:33;;;;;;;6.38;2.35;;;10.70;99.90;;;;;;5050739;28;20233;-63
2021/05/06 11:16:16;;;;;;;5.82;2.50;;;10.60;99.90;;;;;;5052896;28;20127;-63
2021/05/06 11:18:44;;;;;;;4.68;2.22;;;10.70;99.90;;;;;;5053910;28;20100;-63
2021/05/06 11:21:30;;;;;;;4.55;2.33;;;10.70;99.90;;;;;;5053160;28;20032;-63
2021/05/06 11:24:11;;;;;;;4.75;2.00;;;10.80;99.90;;;;;;5051688;28;20041;-63
2021/05/06 11:27:00;;;;;;;5.55;1.92;;;11.10;99.90;;;;;;5051276;28;20048;-63
2021/05/06 11:29:29;;;;;;;3.63;2.22;;;11.70;99.90;;;;;;5059503;28;20032;-63
2021/05/06 11:31:56;;;;;;;3.70;1.80;;;12.30;99.90;;;;;;5048274;28;20505;-63
2021/05/06 11:34:33;;;;;;;6.15;2.40;;;12.60;99.80;;;;;;5049924;28;20043;-63
2021/05/06 11:37:11;;;;;;;4.47;2.00;;;13.00;98.60;;;;;;5048818;28;20027;-63
2021/05/06 11:39:51;;;;;;;7.00;2.03;;;13.10;97.80;;;;;;5048536;28;20224;-63
2021/05/06 11:42:18;;;;;;;6.78;2.05;;;13.00;98.10;;;;;;5048734;28;20505;-63
2021/05/06 11:45:04;;;;;;;4.15;2.15;;;13.20;95.00;;;;;;5048746;28;20035;-63
2021/05/06 11:47:30;;;;;;;5.43;2.28;;;13.60;93.80;;;;;;5046815;28;20120;-63
2021/05/06 11:49:55;;;;;;;7.28;2.90;;;14.00;93.30;;;;;;5048448;28;20059;-62
2021/05/06 11:52:34;;;;;;;9.25;2.20;;;14.40;91.60;;;;;;5055755;28;20032;-63
2021/05/06 11:54:59;;;;;;;7.88;1.98;;;15.00;91.00;;;;;;5053138;28;20033;-63
2021/05/06 11:57:26;;;;;;;6.78;2.38;;;15.10;88.40;;;;;;5049926;28;20029;-63
2021/05/06 11:59:52;;;;;;;5.05;1.65;;;14.40;83.10;;;;;;5053008;28;20427;-62
2021/05/06 12:02:23;;;;;;;8.43;2.30;;;13.70;88.10;;;;;;5051086;28;20024;-63
2021/05/06 12:04:52;;;;;;;7.15;1.88;;;13.90;90.90;;;;;;5057698;28;20539;-63
2021/05/06 12:07:22;;;;;;;7.30;1.90;;;14.10;88.50;;;;;;5055028;28;20036;-63
2021/05/06 12:09:49;;;;;;;3.70;1.70;;;14.20;90.90;;;;;;5058021;28;20352;-63
2021/05/06 12:12:25;;;;;;;5.70;2.05;;;14.10;84.50;;;;;;5052628;28;20145;-63
2021/05/06 12:14:58;;;;;;;5.20;1.65;;;14.10;84.60;;;;;;5055625;28;20036;-63
2021/05/06 12:17:23;;;;;;;5.68;1.20;;;14.20;88.20;;;;;;5052526;28;20032;-64
2021/05/06 12:19:49;;;;;;;4.50;1.60;;;14.30;75.10;;;;;;5056219;28;20043;-62
2021/05/06 12:22:17;;;;;;;7.03;1.48;;;14.00;75.90;;;;;;5059376;28;20029;-62
2021/05/06 12:24:51;;;;;;;3.47;1.13;;;13.80;77.50;;;;;;5051625;28;20102;-62
2021/05/06 12:27:22;;;;;;;10.32;2.03;;;14.00;73.90;;;;;;5062282;28;20044;-62
2021/05/06 12:29:49;;;;;;;5.18;1.30;;;14.10;68.40;;;;;;5057429;28;20037;-62
2021/05/06 12:32:23;;;;;;;3.30;1.58;;;14.40;70.70;;;;;;5053014;28;20249;-62
2021/05/06 12:34:49;;;;;;;6.38;1.60;;;14.70;69.10;;;;;;5053251;28;20405;-64
2021/05/06 12:37:16;;;;;;;5.97;1.50;;;14.80;65.40;;;;;;5053252;28;20566;-63
2021/05/06 12:39:45;;;;;;;4.75;1.52;;;14.50;69.00;;;;;;5056239;28;20123;-63
2021/05/06 12:42:11;;;;;;;3.20;1.40;;;14.70;68.00;;;;;;5052178;28;20473;-63
2021/05/06 12:44:45;;;;;;;6.13;1.42;;;14.30;66.10;;;;;;5057921;28;20095;-63
2021/05/06 12:47:17;;;;;;;7.07;2.35;;;13.70;70.70;;;;;;5051065;28;20041;-63
2021/05/06 12:49:44;;;;;;;4.70;1.88;;;13.30;72.80;;;;;;5049387;28;20033;-64
2021/05/06 12:52:32;;;;;;;5.57;1.67;;;13.30;72.90;;;;;;5050833;28;20037;-63
2021/05/06 12:54:59;;;;;;;5.88;1.70;;;13.60;73.10;;;;;;5054308;28;20335;-64
2021/05/06 12:57:25;;;;;;;4.65;1.70;;;13.70;70.20;;;;;;5050969;28;20029;-63
2021/05/06 12:59:51;;;;;;;3.85;1.20;;;13.60;65.60;;;;;;5052442;28;20138;-63
2021/05/06 13:02:18;;;;;;;7.68;1.75;;;13.30;65.10;;;;;;5051561;28;20496;-63
2021/05/06 13:04:52;;;;;;;4.05;1.20;;;13.10;67.70;;;;;;5054432;28;20036;-63
2021/05/06 13:07:19;;;;;;;4.55;1.73;;;13.10;68.40;;;;;;5063473;28;20032;-63
2021/05/06 13:09:50;;;;;;;3.38;1.27;;;13.30;67.10;;;;;;5058346;28;20052;-63
2021/05/06 13:12:25;;;;;;;5.10;1.40;;;13.30;66.10;;;;;;5058381;28;20029;-63
2021/05/06 13:15:01;;;;;;;7.68;1.90;;;13.70;65.70;;;;;;5059989;28;20063;-63
2021/05/06 13:17:32;;;;;;;5.68;2.10;;;14.20;68.70;;;;;;5057121;28;20481;-63
2021/05/06 13:20:13;;;;;;;7.60;2.55;;;14.40;75.00;;;;;;5065100;28;20032;-63
2021/05/06 13:22:38;;;;;;;11.68;2.75;;;13.70;83.10;;;;;;5045140;28;20033;-63
2021/05/06 13:25:05;;;;;;;10.98;2.70;;;13.30;91.00;;;;;;5050385;28;20029;-63
2021/05/06 13:27:31;;;;;;;8.32;2.50;;;13.20;92.30;;;;;;5050925;28;20528;-62
2021/05/06 13:29:59;;;;;;;10.07;2.67;;;13.10;92.80;;;;;;5051433;28;20041;-63
2021/05/06 13:32:41;;;;;;;10.88;2.65;;;13.40;94.10;;;;;;5041247;28;20025;-63
2021/05/06 13:35:15;;;;;;;7.65;3.20;;;13.40;92.60;;;;;;5056210;28;20056;-63
2021/05/06 13:37:44;;;;;;;6.10;2.15;;;13.30;94.20;;;;;;5055571;28;20032;-63
2021/05/06 13:40:11;;;;;;;7.95;2.33;;;13.50;93.70;;;;;;5056760;28;20036;-62
2021/05/06 13:42:37;;;;;;;6.57;2.67;;;13.40;92.90;;;;;;5044521;28;20089;-63
2021/05/06 13:45:06;;;;;;;7.85;3.42;;;13.10;93.40;;;;;;5053117;28;20077;-63
2021/05/06 13:47:32;;;;;;;10.32;2.88;;;12.80;94.70;;;;;;5058934;28;20024;-62
2021/05/06 13:49:57;;;;;;;5.88;3.47;;;12.60;96.00;;;;;;5050337;28;20067;-63
2021/05/06 13:52:26;;;;;;;8.52;3.05;;;12.80;95.30;;;;;;5042923;28;20064;-63
2021/05/06 13:54:53;;;;;;;9.02;3.53;;;12.60;95.50;;;;;;5054346;28;20063;-62
2021/05/06 13:57:19;;;;;;;7.85;3.15;;;12.40;97.90;;;;;;5053684;28;20028;-62
2021/05/06 13:59:45;;;;;;;7.00;2.67;;;12.20;98.90;;;;;;5054340;28;20515;-62
2021/05/06 14:02:11;;;;;;;8.23;2.83;;;12.20;99.20;;;;;;5041773;28;20031;-62
2021/05/06 14:04:37;;;;;;;10.15;2.80;;;12.10;96.80;;;;;;5047814;28;20389;-63
2021/05/06 14:07:03;;;;;;;7.70;3.10;;;12.20;97.80;;;;;;5058203;28;20098;-63
2021/05/06 14:09:28;;;;;;;5.55;2.45;;;12.40;97.50;;;;;;5059124;28;20115;-62
2021/05/06 14:11:54;;;;;;;11.43;3.10;;;12.50;96.70;;;;;;5049089;28;20174;-63
2021/05/06 14:14:20;;;;;;;6.72;2.60;;;12.40;97.10;;;;;;5061994;28;20024;-63
2021/05/06 14:16:46;;;;;;;10.70;3.30;;;12.40;95.10;;;;;;5051586;28;20535;-63
2021/05/06 14:19:13;;;;;;;6.97;2.90;;;12.10;96.50;;;;;;5058868;28;20028;-63
2021/05/06 14:21:46;;;;;;;5.70;2.38;;;11.90;96.50;;;;;;5044191;28;20119;-63
2021/05/06 14:24:12;;;;;;;7.32;2.25;;;11.80;97.60;;;;;;5051005;28;20616;-63
2021/05/06 14:26:38;;;;;;;3.80;2.13;;;11.90;96.80;;;;;;5049996;28;20048;-63
2021/05/06 14:29:04;;;;;;;4.70;2.50;;;11.80;96.30;;;;;;5054990;28;20029;-63
2021/05/06 14:31:30;;;;;;;9.52;3.38;;;11.90;96.80;;;;;;5039371;28;20028;-62
2021/05/06 14:33:56;;;;;;;6.50;3.50;;;11.90;96.10;;;;;;5056749;28;20858;-62
2021/05/06 14:36:22;;;;;;;11.32;2.72;;;11.90;96.70;;;;;;5056138;28;20024;-63
2021/05/06 14:38:48;;;;;;;6.25;3.70;;;11.90;96.40;;;;;;5056589;28;20422;-62
2021/05/06 14:41:13;;;;;;;8.60;3.83;;;12.10;95.90;;;;;;5057443;28;20142;-62
2021/05/06 14:43:39;;;;;;;8.52;3.78;;;12.00;96.20;;;;;;5057564;28;20374;-63
2021/05/06 14:46:05;;;;;;;5.82;2.15;;;12.10;96.80;;;;;;5055167;28;20071;-63
2021/05/06 14:48:32;;;;;;;6.90;2.88;;;12.30;96.20;;;;;;5054009;28;20115;-63
2021/05/06 14:50:59;;;;;;;8.13;2.22;;;12.40;96.70;;;;;;5056377;28;20028;-63
2021/05/06 14:53:26;;;;;;;7.05;2.47;;;12.50;96.90;;;;;;5060228;28;20063;-63
2021/05/06 14:55:52;;;;;;;8.40;2.38;;;12.30;96.10;;;;;;5065361;28;20028;-63
2021/05/06 14:58:18;;;;;;;8.38;2.70;;;12.40;97.70;;;;;;5048397;28;20643;-63
2021/05/06 15:00:43;;;;;;;9.75;2.80;;;12.10;95.20;;;;;;5047730;28;20484;-63
2021/05/06 15:03:09;;;;;;;7.90;2.78;;;12.00;96.80;;;;;;5045901;28;20094;-63
2021/05/06 15:05:35;;;;;;;10.25;5.55;;;12.10;97.90;;;;;;5046277;28;20127;-63
2021/05/06 15:08:03;;;;;;;12.55;6.53;;;12.10;99.90;;;;;;5045600;28;20370;-63
2021/05/06 15:10:30;;;;;;;12.57;7.50;;;11.90;99.90;;;;;;5045447;28;20318;-63
2021/05/06 15:12:55;;;;;;;11.35;8.93;;;11.50;99.90;;;;;;5058485;28;20033;-64
2021/05/06 15:15:21;;;;;;;14.27;9.15;;;11.00;99.90;;;;;;5065894;28;20024;-63
2021/05/06 15:17:50;;;;;;;13.02;8.95;;;10.90;99.90;;;;;;5059631;28;20024;-63
2021/05/06 15:20:16;;;;;;;13.82;9.63;;;10.80;99.90;;;;;;5053010;28;20032;-63
2021/05/06 15:22:42;;;;;;;12.80;10.40;;;10.60;99.90;;;;;;5070250;28;20028;-63
2021/05/06 15:25:11;;;;;;;12.18;10.15;;;10.30;99.90;;;;;;5070658;28;20107;-63
2021/05/06 15:27:44;;;;;;;13.07;10.60;;;10.00;99.90;;;;;;5068195;28;20103;-63
2021/05/06 15:30:15;;;;;;;13.38;10.77;;;10.00;99.90;;;;;;5069307;28;20224;-63
2021/05/06 15:32:41;;;;;;;19.38;13.43;;;9.90;99.90;;;;;;5069089;28;20035;-63
2021/05/06 15:35:08;;;;;;;16.45;11.82;;;9.80;99.90;;;;;;5068835;28;20028;-63
2021/05/06 15:37:34;;;;;;;18.08;11.93;;;9.80;99.90;;;;;;5068852;28;20389;-63
2021/05/06 15:40:02;;;;;;;14.00;10.90;;;9.80;99.90;;;;;;5066060;28;20094;-63
2021/05/06 15:42:28;;;;;;;12.98;10.63;;;9.80;99.90;;;;;;5068195;28;20467;-63
2021/05/06 15:44:53;;;;;;;15.35;11.05;;;9.80;99.90;;;;;;5057158;28;20039;-64
2021/05/06 15:47:19;;;;;;;15.57;11.30;;;9.60;99.90;;;;;;5048695;28;20535;-63
2021/05/06 15:49:44;;;;;;;13.88;10.80;;;9.70;99.90;;;;;;5049581;28;20103;-63
2021/05/06 15:52:12;;;;;;;12.52;10.43;;;9.60;99.90;;;;;;5048623;28;20082;-63
2021/05/06 15:54:39;;;;;;;12.88;10.15;;;9.70;99.90;;;;;;5048937;28;20025;-63
2021/05/06 15:57:06;;;;;;;11.80;10.32;;;9.70;99.90;;;;;;5048265;28;20052;-63
2021/05/06 15:59:32;;;;;;;11.57;9.02;;;9.70;99.90;;;;;;5048702;28;20477;-63
2021/05/06 16:01:58;;;;;;;12.52;9.48;;;9.60;99.90;;;;;;5049005;28;20027;-63
2021/05/06 16:04:27;;;;;;;12.95;9.90;;;9.60;99.90;;;;;;5048765;28;20036;-63
2021/05/06 16:06:53;;;;;;;11.35;8.70;;;9.60;99.90;;;;;;5050589;28;20021;-63
2021/05/06 16:09:19;;;;;;;11.90;9.02;;;9.60;99.90;;;;;;5049109;28;20076;-63
2021/05/06 16:11:44;;;;;;;12.68;9.55;;;9.60;99.90;;;;;;5050418;28;20504;-63
2021/05/06 16:14:10;;;;;;;13.52;9.18;;;9.60;99.90;;;;;;5049056;28;20029;-63
2021/05/06 16:16:36;;;;;;;15.02;10.02;;;9.60;99.90;;;;;;5050485;28;20048;-63